createdAt,value
2018-05-26T00:01:25.561Z,9.80
2018-05-26T00:03:53.017Z,10.45
2018-05-26T00:06:20.484Z,11.00
2018-05-26T00:08:47.933Z,10.30
2018-05-26T00:11:15.404Z,12.03
2018-05-26T00:13:42.833Z,12.00
2018-05-26T00:16:10.288Z,12.32
2018-05-26T00:18:37.738Z,12.85
2018-05-26T00:21:05.185Z,12.45
2018-05-26T00:23:32.629Z,13.73
2018-05-26T00:26:00.100Z,15.02
2018-05-26T00:28:27.579Z,13.47
2018-05-26T00:30:55.180Z,14.95
2018-05-26T00:33:23.378Z,14.50
2018-05-26T00:35:50.818Z,15.10
2018-05-26T00:38:18.247Z,15.00
2018-05-26T00:40:46.460Z,16.00
2018-05-26T00:43:13.896Z,16.23
2018-05-26T00:45:41.333Z,17.20
2018-05-26T00:48:09.581Z,16.45
2018-05-26T00:50:37.030Z,16.30
2018-05-26T00:53:04.489Z,18.23
2018-05-26T00:55:31.946Z,17.65
2018-05-26T00:57:59.399Z,19.47
2018-05-26T01:00:26.828Z,19.90
2018-05-26T01:02:54.289Z,20.65
2018-05-26T01:05:21.765Z,20.90
2018-05-26T01:07:49.204Z,21.50
2018-05-26T01:10:16.676Z,22.40
2018-05-26T01:12:44.124Z,23.20
2018-05-26T01:15:11.557Z,20.97
2018-05-26T01:17:39.123Z,23.10
2018-05-26T01:20:06.557Z,23.77
2018-05-26T01:22:34.004Z,23.90
2018-05-26T01:25:02.242Z,24.48
2018-05-26T01:27:29.701Z,25.12
2018-05-26T01:29:57.140Z,24.95
2018-05-26T01:32:24.608Z,25.62
2018-05-26T01:34:52.036Z,25.48
2018-05-26T01:37:19.485Z,26.70
2018-05-26T01:39:46.920Z,26.17
2018-05-26T01:42:14.359Z,25.75
2018-05-26T01:44:42.620Z,25.20
2018-05-26T01:47:10.061Z,26.83
2018-05-26T01:49:37.508Z,27.35
2018-05-26T01:52:04.970Z,26.85
2018-05-26T01:54:32.433Z,27.42
2018-05-26T01:56:59.872Z,26.62
2018-05-26T01:59:27.436Z,26.35
2018-05-26T02:01:54.996Z,26.30
2018-05-26T02:04:22.461Z,26.20
2018-05-26T02:06:49.921Z,27.20
2018-05-26T02:09:17.367Z,27.50
2018-05-26T02:11:44.808Z,29.30
2018-05-26T02:14:12.265Z,29.10
2018-05-26T02:16:39.740Z,27.93
2018-05-26T02:19:07.185Z,27.77
2018-05-26T02:21:34.637Z,28.65
2018-05-26T02:24:02.086Z,28.45
2018-05-26T02:26:29.528Z,29.80
2018-05-26T02:28:57.007Z,29.30
2018-05-26T02:31:24.453Z,30.40
2018-05-26T02:33:51.929Z,30.63
2018-05-26T02:36:19.384Z,31.02
2018-05-26T02:38:46.828Z,30.55
2018-05-26T02:41:14.279Z,30.23
2018-05-26T02:43:41.723Z,31.80
2018-05-26T02:46:09.213Z,31.30
2018-05-26T02:48:36.662Z,30.95
2018-05-26T02:51:04.127Z,32.38
2018-05-26T02:53:31.565Z,31.42
2018-05-26T02:55:59.012Z,32.33
2018-05-26T02:58:26.480Z,30.45
2018-05-26T03:00:53.940Z,30.37
2018-05-26T03:03:21.395Z,29.85
2018-05-26T03:05:54.576Z,30.50
2018-05-26T03:08:27.756Z,28.40
2018-05-26T03:11:01.015Z,29.20
2018-05-26T03:13:34.216Z,27.83
2018-05-26T03:19:02.862Z,27.10
2018-05-26T03:21:30.302Z,26.37
2018-05-26T03:23:57.840Z,28.10
2018-05-26T03:26:25.358Z,28.50
2018-05-26T03:28:52.829Z,26.20
2018-05-26T03:31:20.264Z,27.02
2018-05-26T03:33:47.798Z,26.60
2018-05-26T03:36:15.249Z,27.70
2018-05-26T03:38:42.678Z,25.77
2018-05-26T03:41:10.873Z,24.58
2018-05-26T03:43:38.321Z,24.15
2018-05-26T03:46:05.765Z,24.60
2018-05-26T03:48:33.212Z,24.33
2018-05-26T03:51:01.421Z,24.75
2018-05-26T03:53:28.906Z,21.65
2018-05-26T03:56:08.218Z,23.20
2018-05-26T03:58:47.784Z,23.55
2018-05-26T04:01:15.340Z,21.87
2018-05-26T04:03:42.798Z,20.55
2018-05-26T04:06:10.324Z,18.58
2018-05-26T04:08:37.764Z,17.10
2018-05-26T04:11:05.196Z,16.67
2018-05-26T04:13:33.468Z,17.10
2018-05-26T04:16:01.676Z,17.98
2018-05-26T04:18:29.157Z,18.42
2018-05-26T04:20:56.607Z,17.42
2018-05-26T04:23:24.053Z,18.57
2018-05-26T04:25:51.496Z,17.45
2018-05-26T04:28:18.966Z,16.90
2018-05-26T04:30:46.426Z,15.73
2018-05-26T04:33:13.890Z,15.38
2018-05-26T04:35:41.357Z,15.60
2018-05-26T04:38:08.818Z,14.18
2018-05-26T04:40:36.265Z,13.73
2018-05-26T04:43:03.716Z,13.80
2018-05-26T04:45:31.168Z,13.30
2018-05-26T04:47:58.628Z,12.23
2018-05-26T04:50:26.072Z,12.30
2018-05-26T04:52:53.528Z,11.70
2018-05-26T04:55:20.997Z,11.38
2018-05-26T04:57:48.440Z,10.70
2018-05-26T05:00:15.897Z,10.15
2018-05-26T05:02:43.342Z,10.30
2018-05-26T05:05:10.780Z,9.60
2018-05-26T05:07:38.215Z,9.30
2018-05-26T05:10:05.648Z,9.73
2018-05-26T05:12:33.117Z,8.73
2018-05-26T05:15:00.565Z,8.88
2018-05-26T05:17:28.002Z,9.30
2018-05-26T05:19:55.449Z,8.30
2018-05-26T05:22:22.916Z,8.60
2018-05-26T05:24:50.380Z,9.20
2018-05-26T05:27:17.848Z,8.02
2018-05-26T05:29:45.308Z,7.97
2018-05-26T05:32:12.774Z,7.97
2018-05-26T05:34:40.208Z,7.60
2018-05-26T05:37:07.669Z,7.30
2018-05-26T05:39:35.124Z,7.78
2018-05-26T05:42:02.565Z,7.55
2018-05-26T05:44:30.019Z,8.27
2018-05-26T05:46:57.463Z,7.00
2018-05-26T05:49:24.944Z,6.90
2018-05-26T05:51:52.403Z,7.40
2018-05-26T05:54:19.860Z,7.70
2018-05-26T05:56:47.305Z,7.45
2018-05-26T05:59:14.762Z,7.45
2018-05-26T06:01:42.205Z,6.50
2018-05-26T06:04:09.775Z,7.10
2018-05-26T06:06:37.204Z,7.28
2018-05-26T06:09:05.579Z,6.90
2018-05-26T06:11:33.045Z,6.70
2018-05-26T06:14:00.500Z,7.30
2018-05-26T06:16:28.821Z,6.85
2018-05-26T06:18:56.257Z,6.40
2018-05-26T06:21:23.724Z,6.97
2018-05-26T06:23:51.178Z,7.10
2018-05-26T06:26:18.692Z,6.60
2018-05-26T06:28:46.903Z,6.30
2018-05-26T06:31:14.392Z,6.50
2018-05-26T06:33:41.835Z,6.60
2018-05-26T06:36:09.292Z,5.68
2018-05-26T06:38:36.785Z,5.80
2018-05-26T06:41:04.220Z,6.60
2018-05-26T06:43:32.416Z,6.37
2018-05-26T06:45:59.857Z,5.90
2018-05-26T06:48:28.051Z,5.60
2018-05-26T06:50:55.476Z,6.10
2018-05-26T06:53:22.933Z,8.00
2018-05-26T06:55:50.392Z,8.00
2018-05-26T06:58:17.828Z,7.32
2018-05-26T07:00:45.264Z,6.65
2018-05-26T07:03:12.702Z,6.37
2018-05-26T07:05:40.140Z,6.80
2018-05-26T07:08:07.605Z,6.20
2018-05-26T07:10:35.141Z,5.53
2018-05-26T07:13:03.417Z,5.55
2018-05-26T07:15:30.942Z,5.90
2018-05-26T07:17:58.940Z,5.40
2018-05-26T07:20:27.169Z,6.10
2018-05-26T07:22:54.618Z,5.90
2018-05-26T07:25:22.137Z,5.13
2018-05-26T07:27:49.645Z,5.82
2018-05-26T07:30:17.780Z,5.75
2018-05-26T07:32:45.264Z,6.30
2018-05-26T07:35:12.692Z,5.50
2018-05-26T07:37:40.129Z,5.90
2018-05-26T07:40:08.357Z,5.73
2018-05-26T07:42:35.793Z,5.85
2018-05-26T07:45:03.273Z,6.30
2018-05-26T07:47:30.708Z,5.30
2018-05-26T07:49:58.348Z,5.50
2018-05-26T07:52:26.545Z,5.70
2018-05-26T07:54:54.053Z,5.80
2018-05-26T07:57:21.473Z,5.80
2018-05-26T07:59:49.020Z,6.15
2018-05-26T08:02:16.447Z,6.00
2018-05-26T08:04:44.673Z,5.10
2018-05-26T08:07:12.152Z,5.60
2018-05-26T08:09:39.590Z,5.22
2018-05-26T08:12:07.044Z,5.35
2018-05-26T08:14:34.484Z,6.32
2018-05-26T08:17:01.934Z,5.60
2018-05-26T08:19:29.392Z,5.65
2018-05-26T08:21:56.807Z,5.57
2018-05-26T08:24:25.053Z,5.50
2018-05-26T08:26:52.465Z,5.62
2018-05-26T08:29:19.893Z,5.37
2018-05-26T08:31:48.114Z,5.37
2018-05-26T08:34:15.553Z,5.70
2018-05-26T08:36:43.022Z,5.63
2018-05-26T08:39:10.474Z,5.00
2018-05-26T08:41:37.973Z,5.60
2018-05-26T08:44:05.414Z,5.43
2018-05-26T08:46:32.849Z,5.62
2018-05-26T08:49:00.301Z,5.30
2018-05-26T08:51:27.756Z,5.30
2018-05-26T08:53:55.213Z,5.70
2018-05-26T08:56:22.725Z,5.20
2018-05-26T08:58:50.168Z,5.68
2018-05-26T09:01:17.624Z,5.40
2018-05-26T09:03:45.069Z,5.50
2018-05-26T09:06:12.512Z,5.90
2018-05-26T09:08:39.947Z,5.50
2018-05-26T09:11:07.405Z,5.20
2018-05-26T09:13:34.903Z,5.53
2018-05-26T09:16:02.345Z,5.00
2018-05-26T09:18:30.502Z,5.22
2018-05-26T09:20:57.958Z,5.65
2018-05-26T09:23:25.415Z,5.65
2018-05-26T09:25:52.884Z,5.80
2018-05-26T09:28:20.312Z,5.50
2018-05-26T09:30:47.804Z,5.70
2018-05-26T09:33:15.262Z,5.50
2018-05-26T09:35:42.716Z,5.40
2018-05-26T09:38:10.173Z,5.22
2018-05-26T09:40:37.628Z,5.50
2018-05-26T09:43:05.109Z,6.12
2018-05-26T09:45:32.561Z,5.90
2018-05-26T09:48:00.126Z,6.00
2018-05-26T09:50:27.586Z,5.50
2018-05-26T09:52:55.038Z,5.50
2018-05-26T09:55:22.484Z,5.72
2018-05-26T09:57:49.929Z,5.30
2018-05-26T10:00:17.407Z,5.60
2018-05-26T10:02:44.839Z,5.18
2018-05-26T10:05:12.305Z,4.97
2018-05-26T10:07:39.772Z,5.97
2018-05-26T10:10:07.226Z,5.10
2018-05-26T10:12:34.678Z,5.00
2018-05-26T10:15:02.310Z,5.00
2018-05-26T10:17:29.732Z,5.45
2018-05-26T10:19:57.252Z,6.22
2018-05-26T10:22:25.422Z,5.00
2018-05-26T10:24:52.840Z,5.72
2018-05-26T10:27:20.280Z,5.62
2018-05-26T10:29:47.732Z,5.10
2018-05-26T10:32:16.000Z,4.97
2018-05-26T10:34:43.376Z,5.40
2018-05-26T10:37:10.812Z,5.10
2018-05-26T10:39:38.340Z,5.20
2018-05-26T10:42:05.795Z,4.90
2018-05-26T10:44:33.217Z,4.93
2018-05-26T10:47:00.675Z,5.20
2018-05-26T10:49:28.096Z,5.50
2018-05-26T10:51:55.577Z,5.35
2018-05-26T10:54:23.037Z,4.82
2018-05-26T10:56:50.545Z,5.10
2018-05-26T10:59:17.965Z,4.70
2018-05-26T11:01:45.433Z,4.35
2018-05-26T11:04:12.887Z,5.15
2018-05-26T11:06:46.344Z,4.37
2018-05-26T11:09:13.788Z,5.80
2018-05-26T11:11:41.229Z,4.75
2018-05-26T11:14:09.428Z,5.07
2018-05-26T11:16:36.892Z,4.47
2018-05-26T11:19:04.386Z,4.32
2018-05-26T11:21:32.553Z,5.22
2018-05-26T11:24:00.270Z,5.20
2018-05-26T11:26:27.472Z,4.57
2018-05-26T11:28:54.969Z,4.30
2018-05-26T11:31:22.353Z,5.60
2018-05-26T11:33:49.800Z,6.37
2018-05-26T11:36:18.249Z,4.70
2018-05-26T11:38:46.470Z,4.93
2018-05-26T11:41:13.916Z,4.82
2018-05-26T11:43:41.419Z,5.07
2018-05-26T11:46:08.861Z,5.80
2018-05-26T11:48:36.309Z,5.00
2018-05-26T11:51:03.809Z,5.18
2018-05-26T11:53:31.244Z,5.05
2018-05-26T11:55:58.680Z,6.03
2018-05-26T11:58:26.136Z,5.40
2018-05-26T12:00:53.610Z,4.82
2018-05-26T12:03:21.065Z,4.78
2018-05-26T12:05:48.504Z,5.05
2018-05-26T12:08:16.048Z,4.70
2018-05-26T12:10:43.534Z,5.60
2018-05-26T12:13:10.983Z,5.77
2018-05-26T12:15:38.437Z,5.45
2018-05-26T12:18:05.897Z,4.85
2018-05-26T12:20:33.373Z,4.97
2018-05-26T12:23:00.844Z,4.80
2018-05-26T12:25:29.102Z,4.70
2018-05-26T12:27:56.545Z,4.40
2018-05-26T12:30:24.016Z,4.40
2018-05-26T12:32:51.449Z,4.70
2018-05-26T12:35:18.952Z,4.57
2018-05-26T12:37:48.001Z,4.47
2018-05-26T12:40:15.484Z,4.40
2018-05-26T12:42:42.957Z,4.80
2018-05-26T12:45:11.175Z,4.40
2018-05-26T12:47:39.433Z,4.40
2018-05-26T12:50:06.909Z,4.90
2018-05-26T12:52:34.343Z,5.60
2018-05-26T12:55:01.775Z,5.53
2018-05-26T12:57:30.019Z,5.50
2018-05-26T12:59:57.598Z,5.15
2018-05-26T13:02:25.784Z,4.60
2018-05-26T13:04:53.990Z,8.20
2018-05-26T13:07:21.425Z,5.70
2018-05-26T13:09:48.856Z,4.68
2018-05-26T13:12:17.073Z,4.80
2018-05-26T13:14:44.505Z,5.40
2018-05-26T13:17:12.834Z,6.22
2018-05-26T13:19:40.265Z,4.80
2018-05-26T13:22:07.785Z,5.20
2018-05-26T13:24:35.993Z,4.80
2018-05-26T13:27:03.450Z,5.10
2018-05-26T13:29:30.897Z,5.35
2018-05-26T13:31:58.325Z,4.97
2018-05-26T13:34:26.528Z,5.93
2018-05-26T13:36:53.981Z,5.18
2018-05-26T13:39:21.420Z,5.10
2018-05-26T13:41:49.627Z,5.70
2018-05-26T13:44:17.062Z,4.90
2018-05-26T13:46:44.485Z,4.63
2018-05-26T13:49:11.962Z,4.80
2018-05-26T13:51:39.381Z,4.95
2018-05-26T13:54:07.060Z,6.30
2018-05-26T13:56:34.490Z,4.78
2018-05-26T13:59:01.931Z,4.60
2018-05-26T14:01:29.383Z,4.70
2018-05-26T14:03:56.822Z,5.40
2018-05-26T14:06:24.297Z,4.60
2018-05-26T14:08:51.736Z,4.30
2018-05-26T14:11:19.181Z,4.10
2018-05-26T14:13:46.636Z,5.25
2018-05-26T14:16:14.946Z,3.58
2018-05-26T14:18:42.382Z,3.67
2018-05-26T14:21:09.824Z,3.30
2018-05-26T14:23:37.265Z,3.07
2018-05-26T14:26:05.455Z,3.50
2018-05-26T14:28:32.941Z,3.40
2018-05-26T14:31:00.375Z,3.25
2018-05-26T14:33:27.859Z,3.60
2018-05-26T14:35:55.289Z,3.10
2018-05-26T14:38:22.781Z,3.03
2018-05-26T14:40:50.246Z,3.17
2018-05-26T14:43:17.687Z,3.30
2018-05-26T14:45:45.133Z,3.23
2018-05-26T14:48:12.580Z,3.50
2018-05-26T14:50:40.057Z,3.10
2018-05-26T14:53:07.520Z,3.30
2018-05-26T14:55:34.984Z,3.05
2018-05-26T14:58:02.411Z,3.03
2018-05-26T15:00:30.498Z,3.12
2018-05-26T15:02:57.972Z,3.10
2018-05-26T15:05:26.308Z,3.12
2018-05-26T15:07:53.789Z,3.10
2018-05-26T15:10:21.251Z,3.00
2018-05-26T15:12:48.753Z,2.80
2018-05-26T15:15:16.158Z,2.62
2018-05-26T15:17:43.624Z,3.15
2018-05-26T15:20:11.069Z,3.10
2018-05-26T15:22:38.534Z,3.03
2018-05-26T15:25:06.066Z,7.60
2018-05-26T15:27:33.480Z,3.90
2018-05-26T15:30:01.701Z,3.22
2018-05-26T15:32:29.179Z,3.23
2018-05-26T15:34:56.627Z,4.15
2018-05-26T15:37:24.069Z,2.80
2018-05-26T15:39:51.529Z,3.20
2018-05-26T15:42:19.013Z,3.30
2018-05-26T15:44:46.452Z,2.80
2018-05-26T15:47:13.906Z,2.85
2018-05-26T15:49:41.522Z,2.80
2018-05-26T15:52:09.719Z,2.80
2018-05-26T15:54:37.191Z,3.20
2018-05-26T15:57:04.616Z,3.30
2018-05-26T15:59:32.056Z,3.00
2018-05-26T16:02:00.250Z,3.40
2018-05-26T16:04:27.688Z,3.20
2018-05-26T16:06:55.880Z,3.40
2018-05-26T16:09:23.337Z,3.40
2018-05-26T16:11:50.768Z,3.90
2018-05-26T16:14:19.033Z,3.60
2018-05-26T16:16:46.474Z,3.40
2018-05-26T16:19:13.921Z,3.60
2018-05-26T16:21:41.364Z,4.25
2018-05-26T16:24:08.813Z,2.95
2018-05-26T16:26:36.261Z,4.18
2018-05-26T16:29:03.701Z,3.90
2018-05-26T16:31:32.002Z,17.00
2018-05-26T16:33:59.441Z,5.93
2018-05-26T16:36:26.930Z,3.42
2018-05-26T16:38:54.406Z,4.20
2018-05-26T16:41:21.897Z,3.90
2018-05-26T16:43:50.087Z,3.80
2018-05-26T16:46:17.555Z,4.00
2018-05-26T16:48:45.033Z,2.90
2018-05-26T16:51:12.476Z,3.28
2018-05-26T16:53:39.916Z,4.00
2018-05-26T16:56:07.360Z,3.53
2018-05-26T16:58:34.810Z,3.25
2018-05-26T17:01:03.009Z,4.03
2018-05-26T17:03:30.444Z,3.70
2018-05-26T17:05:57.900Z,3.25
2018-05-26T17:08:26.097Z,3.60
2018-05-26T17:10:53.529Z,3.30
2018-05-26T17:13:20.980Z,3.60
2018-05-26T17:15:48.571Z,4.10
2018-05-26T17:18:15.997Z,3.90
2018-05-26T17:20:43.477Z,3.50
2018-05-26T17:23:10.911Z,3.87
2018-05-26T17:25:38.361Z,4.63
2018-05-26T17:28:06.588Z,4.40
2018-05-26T17:30:34.056Z,4.13
2018-05-26T17:33:01.500Z,4.20
2018-05-26T17:35:28.974Z,5.28
2018-05-26T17:37:56.397Z,4.72
2018-05-26T17:40:23.948Z,3.83
2018-05-26T17:42:51.375Z,4.53
2018-05-26T17:45:19.601Z,4.00
2018-05-26T17:47:47.088Z,4.22
2018-05-26T17:50:14.548Z,3.72
2018-05-26T17:52:42.079Z,4.12
2018-05-26T17:55:09.517Z,3.85
2018-05-26T17:57:36.961Z,4.10
2018-05-26T18:00:04.420Z,4.33
2018-05-26T18:02:31.904Z,4.12
2018-05-26T18:04:59.346Z,3.80
2018-05-26T18:07:26.808Z,4.62
2018-05-26T18:09:54.265Z,4.30
2018-05-26T18:12:21.708Z,4.10
2018-05-26T18:14:49.152Z,4.25
2018-05-26T18:17:16.618Z,4.03
2018-05-26T18:19:44.060Z,4.30
2018-05-26T18:22:11.588Z,4.35
2018-05-26T18:24:39.906Z,4.20
2018-05-26T18:27:07.328Z,4.40
2018-05-26T18:29:34.748Z,4.43
2018-05-26T18:32:02.201Z,3.90
2018-05-26T18:34:29.652Z,4.10
2018-05-26T18:36:57.113Z,4.35
2018-05-26T18:39:24.553Z,4.18
2018-05-26T18:41:52.016Z,4.65
2018-05-26T18:44:19.453Z,5.18
2018-05-26T18:46:46.871Z,4.97
2018-05-26T18:49:15.100Z,4.95
2018-05-26T18:51:42.567Z,4.82
2018-05-26T18:54:10.012Z,4.40
2018-05-26T18:56:37.461Z,5.43
2018-05-26T18:59:04.930Z,6.35
2018-05-26T19:01:32.405Z,5.72
2018-05-26T19:03:59.852Z,4.70
2018-05-26T19:06:27.308Z,4.80
2018-05-26T19:08:54.749Z,4.45
2018-05-26T19:11:22.297Z,4.80
2018-05-26T19:13:49.752Z,4.85
2018-05-26T19:16:17.208Z,4.53
2018-05-26T19:18:44.656Z,4.50
2018-05-26T19:21:12.093Z,5.10
2018-05-26T19:23:40.281Z,5.45
2018-05-26T19:26:07.721Z,5.07
2018-05-26T19:28:35.972Z,4.97
2018-05-26T19:31:03.425Z,4.90
2018-05-26T19:33:30.893Z,4.47
2018-05-26T19:35:58.545Z,4.70
2018-05-26T19:38:25.993Z,5.00
2018-05-26T19:40:53.440Z,4.80
2018-05-26T19:43:20.878Z,5.20
2018-05-26T19:45:48.344Z,4.43
2018-05-26T19:48:15.821Z,4.30
2018-05-26T19:50:43.251Z,4.80
2018-05-26T19:53:10.765Z,4.90
2018-05-26T19:55:38.952Z,5.10
2018-05-26T19:58:06.388Z,5.10
2018-05-26T20:00:34.593Z,5.50
2018-05-26T20:03:02.037Z,5.80
2018-05-26T20:05:29.484Z,4.30
2018-05-26T20:07:57.685Z,4.97
2018-05-26T20:10:25.126Z,5.70
2018-05-26T20:12:52.577Z,5.00
2018-05-26T20:15:20.182Z,5.00
2018-05-26T20:17:47.633Z,5.40
2018-05-26T20:20:15.245Z,4.95
2018-05-26T20:22:42.757Z,4.90
2018-05-26T20:25:10.204Z,4.70
2018-05-26T20:27:37.645Z,5.32
2018-05-26T20:30:05.087Z,5.30
2018-05-26T20:32:32.543Z,5.40
2018-05-26T20:35:00.032Z,5.87
2018-05-26T20:37:27.496Z,6.50
2018-05-26T20:39:54.937Z,5.30
2018-05-26T20:42:22.390Z,5.53
2018-05-26T20:44:49.842Z,5.40
2018-05-26T20:47:17.318Z,4.97
2018-05-26T20:49:44.786Z,6.37
2018-05-26T20:52:12.230Z,5.70
2018-05-26T20:54:39.777Z,5.40
2018-05-26T20:57:07.197Z,5.20
2018-05-26T20:59:34.800Z,5.40
2018-05-26T21:02:02.248Z,5.60
2018-05-26T21:04:29.732Z,5.87
2018-05-26T21:06:57.277Z,5.60
2018-05-26T21:09:24.742Z,6.80
2018-05-26T21:11:52.196Z,7.80
2018-05-26T21:14:19.657Z,9.73
2018-05-26T21:16:47.098Z,11.25
2018-05-26T21:19:14.613Z,12.37
2018-05-26T21:21:42.811Z,12.48
2018-05-26T21:24:10.296Z,15.45
2018-05-26T21:26:37.756Z,14.15
2018-05-26T21:29:05.205Z,14.98
2018-05-26T21:31:32.676Z,14.63
2018-05-26T21:34:00.133Z,12.40
2018-05-26T21:36:27.584Z,10.57
2018-05-26T21:38:55.034Z,8.52
2018-05-26T21:41:22.488Z,8.05
2018-05-26T21:43:50.039Z,7.10
2018-05-26T21:46:17.473Z,7.32
2018-05-26T21:48:44.960Z,7.20
2018-05-26T21:51:12.405Z,6.53
2018-05-26T21:53:39.895Z,7.32
2018-05-26T21:56:07.331Z,6.87
2018-05-26T21:58:34.861Z,6.33
2018-05-26T22:01:02.305Z,6.20
2018-05-26T22:03:29.764Z,6.30
2018-05-26T22:05:57.195Z,6.73
2018-05-26T22:08:24.720Z,6.50
2018-05-26T22:10:52.185Z,7.45
2018-05-26T22:13:19.762Z,7.50
2018-05-26T22:15:47.277Z,7.28
2018-05-26T22:18:14.813Z,8.07
2018-05-26T22:20:42.216Z,7.43
2018-05-26T22:23:09.654Z,8.20
2018-05-26T22:25:37.133Z,8.52
2018-05-26T22:28:04.572Z,8.30
2018-05-26T22:30:32.049Z,7.93
2018-05-26T22:32:59.592Z,8.30
2018-05-26T22:35:27.054Z,8.23
2018-05-26T22:37:54.508Z,8.25
2018-05-26T22:40:21.948Z,9.57
2018-05-26T22:42:49.436Z,9.35
2018-05-26T22:45:16.880Z,8.07
2018-05-26T22:47:44.317Z,9.50
2018-05-26T22:50:11.795Z,8.80
2018-05-26T22:52:39.237Z,8.82
2018-05-26T22:55:06.677Z,9.38
2018-05-26T22:57:34.145Z,8.25
2018-05-26T23:00:01.596Z,8.30
2018-05-26T23:02:29.836Z,8.98
2018-05-26T23:04:58.069Z,9.00
2018-05-26T23:07:25.507Z,9.10
2018-05-26T23:09:52.977Z,9.48
2018-05-26T23:12:20.404Z,8.70
2018-05-26T23:14:47.851Z,9.20
2018-05-26T23:17:15.296Z,9.70
2018-05-26T23:19:42.789Z,9.55
2018-05-26T23:22:10.246Z,9.38
2018-05-26T23:24:37.686Z,9.40
2018-05-26T23:27:05.116Z,8.82
2018-05-26T23:29:32.600Z,8.95
2018-05-26T23:32:00.034Z,9.07
2018-05-26T23:34:28.256Z,9.77
2018-05-26T23:36:55.716Z,9.30
2018-05-26T23:39:23.186Z,10.20
2018-05-26T23:41:50.778Z,10.00
2018-05-26T23:44:18.254Z,10.50
2018-05-26T23:46:45.692Z,11.02
2018-05-26T23:49:13.165Z,11.00
2018-05-26T23:51:40.593Z,11.20
2018-05-26T23:54:08.802Z,11.65
2018-05-26T23:56:36.240Z,11.35
2018-05-26T23:59:03.705Z,12.15
